Time;durP1;ratioP1;P1;durP2;ratioP2;P2;SDS_P1;SDS_P2;PMS_P1;PMS_P2;Temp;Humidity;BMP_temperature;BMP_pressure;BME280_temperature;BME280_humidity;BME280_pressure;Samples;Min_cycle;Max_cycle;Signal;HPM_P1;HPM_P2
2021/08/25 00:02:01;;;;;;;;;;;;;;;;;;5154911;27;20013;-71
2021/08/25 00:04:27;;;;;;;;;;;;;;;;;;5154630;27;19927;-71
2021/08/25 00:06:53;;;;;;;;;;;;;;;;;;5154624;27;19930;-71
2021/08/25 00:09:20;;;;;;;;;;;;;;;;;;5154410;27;19923;-71
2021/08/25 00:11:46;;;;;;;;;;;;;;;;;;5154364;27;19923;-71
2021/08/25 00:14:12;;;;;;;;;;;;;;;;;;5154830;27;19923;-71
2021/08/25 00:16:38;;;;;;;;;;;;;;;;;;5154192;27;19924;-71
2021/08/25 00:19:05;;;;;;;;;;;;;;;;;;5154636;27;19923;-71
2021/08/25 00:21:31;;;;;;;;;;;;;;;;;;5154112;27;20396;-71
2021/08/25 00:23:57;;;;;;;;;;;;;;;;;;5154085;27;19933;-71
2021/08/25 00:26:24;;;;;;;;;;;;;;;;;;5154622;27;19923;-71
2021/08/25 00:28:50;;;;;;;;;;;;;;;;;;5154063;27;20423;-71
2021/08/25 00:31:16;;;;;;;;;;;;;;;;;;5154077;27;19931;-71
2021/08/25 00:33:42;;;;;;;;;;;;;;;;;;5154174;27;19923;-71
2021/08/25 00:36:09;;;;;;;;;;;;;;;;;;5154218;27;19930;-71
2021/08/25 00:38:35;;;;;;;;;;;;;;;;;;5154155;27;19931;-71
2021/08/25 00:41:03;;;;;;;;;;;;;;;;;;5153739;27;20385;-71
2021/08/25 00:43:29;;;;;;;;;;;;;;;;;;5154100;27;19972;-71
2021/08/25 00:45:55;;;;;;;;;;;;;;;;;;5154157;27;19927;-70
2021/08/25 00:48:22;;;;;;;;;;;;;;;;;;5153941;27;19923;-71
2021/08/25 00:50:48;;;;;;;;;;;;;;;;;;5153929;27;19923;-71
2021/08/25 00:53:14;;;;;;;;;;;;;;;;;;5154325;27;19923;-71
2021/08/25 00:55:41;;;;;;;;;;;;;;;;;;5153636;27;20451;-71
2021/08/25 00:58:07;;;;;;;;;;;;;;;;;;5153990;27;19927;-71
2021/08/25 01:00:33;;;;;;;;;;;;;;;;;;5154268;27;19923;-71
2021/08/25 01:03:00;;;;;;;;;;;;;;;;;;5153652;27;19923;-71
2021/08/25 01:05:26;;;;;;;;;;;;;;;;;;5154147;27;19923;-71
2021/08/25 01:07:52;;;;;;;;;;;;;;;;;;5153646;27;20291;-71
2021/08/25 01:10:19;;;;;;;;;;;;;;;;;;5153736;27;19935;-71
2021/08/25 01:12:45;;;;;;;;;;;;;;;;;;5153929;27;19923;-71
2021/08/25 01:15:11;;;;;;;;;;;;;;;;;;5153793;27;19930;-71
2021/08/25 01:17:37;;;;;;;;;;;;;;;;;;5153876;27;19927;-71
2021/08/25 01:20:04;;;;;;;;;;;;;;;;;;5153520;27;19931;-71
2021/08/25 01:22:30;;;;;;;;;;;;;;;;;;5153748;27;19923;-71
2021/08/25 01:24:56;;;;;;;;;;;;;;;;;;5153818;27;19927;-71
2021/08/25 01:27:23;;;;;;;;;;;;;;;;;;5153705;27;19930;-71
2021/08/25 01:29:49;;;;;;;;;;;;;;;;;;5153691;27;19923;-71
2021/08/25 01:32:15;;;;;;;;;;;;;;;;;;5153649;27;20266;-71
2021/08/25 01:34:41;;;;;;;;;;;;;;;;;;5153243;27;19923;-71
2021/08/25 01:37:08;;;;;;;;;;;;;;;;;;5153913;27;19927;-71
2021/08/25 01:39:34;;;;;;;;;;;;;;;;;;5153611;27;20365;-71
2021/08/25 01:42:00;;;;;;;;;;;;;;;;;;5153350;27;19923;-71
2021/08/25 01:44:27;;;;;;;;;;;;;;;;;;5153756;27;19922;-71
2021/08/25 01:46:53;;;;;;;;;;;;;;;;;;5153294;27;20380;-71
2021/08/25 01:49:19;;;;;;;;;;;;;;;;;;5153756;27;19930;-71
2021/08/25 01:51:46;;;;;;;;;;;;;;;;;;5153496;27;19923;-71
2021/08/25 01:54:12;;;;;;;;;;;;;;;;;;5156357;27;19929;-71
2021/08/25 01:56:38;;;;;;;;;;;;;;;;;;5157121;27;19927;-71
2021/08/25 01:59:04;;;;;;;;;;;;;;;;;;5157086;27;20381;-71
2021/08/25 02:01:31;;;;;;;;;;;;;;;;;;5157364;27;19930;-71
2021/08/25 02:03:58;;;;;;;;;;;;;;;;;;5156768;27;20304;-71
2021/08/25 02:06:24;;;;;;;;;;;;;;;;;;5157195;27;20366;-71
2021/08/25 02:08:51;;;;;;;;;;;;;;;;;;5156560;27;19930;-71
2021/08/25 02:11:17;;;;;;;;;;;;;;;;;;5157089;27;19924;-71
2021/08/25 02:13:43;;;;;;;;;;;;;;;;;;5156591;27;19923;-71
2021/08/25 02:16:10;;;;;;;;;;;;;;;;;;5157129;27;19931;-71
2021/08/25 02:18:36;;;;;;;;;;;;;;;;;;5156537;27;20449;-71
2021/08/25 02:21:02;;;;;;;;;;;;;;;;;;5156418;27;19923;-71
2021/08/25 02:23:29;;;;;;;;;;;;;;;;;;5156902;27;19927;-71
2021/08/25 02:25:55;;;;;;;;;;;;;;;;;;5156359;27;20293;-71
2021/08/25 02:28:21;;;;;;;;;;;;;;;;;;5156471;27;19930;-71
2021/08/25 02:30:47;;;;;;;;;;;;;;;;;;5156499;27;19923;-71
2021/08/25 02:33:14;;;;;;;;;;;;;;;;;;5156362;27;19923;-72
2021/08/25 02:35:40;;;;;;;;;;;;;;;;;;5156184;27;19930;-72
2021/08/25 02:38:06;;;;;;;;;;;;;;;;;;5156574;27;19923;-72
2021/08/25 02:40:33;;;;;;;;;;;;;;;;;;5156271;27;19923;-71
2021/08/25 02:42:59;;;;;;;;;;;;;;;;;;5156290;27;19927;-71
2021/08/25 02:45:25;;;;;;;;;;;;;;;;;;5156359;27;20331;-71
2021/08/25 02:47:51;;;;;;;;;;;;;;;;;;5155949;27;19931;-71
2021/08/25 02:50:18;;;;;;;;;;;;;;;;;;5156245;27;19930;-72
2021/08/25 02:52:44;;;;;;;;;;;;;;;;;;5155825;27;20428;-71
2021/08/25 02:55:10;;;;;;;;;;;;;;;;;;5156204;27;19923;-72
2021/08/25 02:57:37;;;;;;;;;;;;;;;;;;5155725;27;20285;-71
2021/08/25 03:00:03;;;;;;;;;;;;;;;;;;5155824;27;19923;-71
2021/08/25 03:02:29;;;;;;;;;;;;;;;;;;5156200;27;19935;-71
2021/08/25 03:04:56;;;;;;;;;;;;;;;;;;5155294;27;20687;-71
2021/08/25 03:07:22;;;;;;;;;;;;;;;;;;5155790;27;19927;-71
2021/08/25 03:09:48;;;;;;;;;;;;;;;;;;5155713;27;19930;-71
2021/08/25 03:12:14;;;;;;;;;;;;;;;;;;5155921;27;19946;-71
2021/08/25 03:14:41;;;;;;;;;;;;;;;;;;5155374;27;19923;-71
2021/08/25 03:17:07;;;;;;;;;;;;;;;;;;5155487;27;20417;-71
2021/08/25 03:19:33;;;;;;;;;;;;;;;;;;5155540;27;19930;-71
2021/08/25 03:22:00;;;;;;;;;;;;;;;;;;5155123;27;19933;-73
2021/08/25 03:24:26;;;;;;;;;;;;;;;;;;5155458;27;20376;-71
2021/08/25 03:26:52;;;;;;;;;;;;;;;;;;5155033;27;19923;-71
2021/08/25 03:29:19;;;;;;;;;;;;;;;;;;5155628;27;19946;-71
2021/08/25 03:31:45;;;;;;;;;;;;;;;;;;5154976;27;19930;-71
2021/08/25 03:34:11;;;;;;;;;;;;;;;;;;5155344;27;19923;-71
2021/08/25 03:36:38;;;;;;;;;;;;;;;;;;5155249;27;19981;-71
2021/08/25 03:39:04;;;;;;;;;;;;;;;;;;5155150;27;19923;-71
2021/08/25 03:41:30;;;;;;;;;;;;;;;;;;5155240;27;19927;-71
2021/08/25 03:43:56;;;;;;;;;;;;;;;;;;5155302;27;20397;-71
2021/08/25 03:46:23;;;;;;;;;;;;;;;;;;5154839;27;19923;-71
2021/08/25 03:48:49;;;;;;;;;;;;;;;;;;5154962;27;19923;-71
2021/08/25 03:51:15;;;;;;;;;;;;;;;;;;5154817;27;20373;-71
2021/08/25 03:53:42;;;;;;;;;;;;;;;;;;5154818;27;19930;-71
2021/08/25 03:56:08;;;;;;;;;;;;;;;;;;5155100;27;19923;-71
2021/08/25 03:58:34;;;;;;;;;;;;;;;;;;5154793;27;19923;-72
2021/08/25 04:01:00;;;;;;;;;;;;;;;;;;5154588;27;19934;-71
2021/08/25 04:03:27;;;;;;;;;;;;;;;;;;5154686;27;20258;-71
2021/08/25 04:05:53;;;;;;;;;;;;;;;;;;5154375;27;19927;-71
2021/08/25 04:08:19;;;;;;;;;;;;;;;;;;5154896;27;19923;-71
2021/08/25 04:10:46;;;;;;;;;;;;;;;;;;5154084;27;20375;-71
2021/08/25 04:13:12;;;;;;;;;;;;;;;;;;5154513;27;19924;-71
2021/08/25 04:15:38;;;;;;;;;;;;;;;;;;5153884;27;19942;-71
2021/08/25 04:18:05;;;;;;;;;;;;;;;;;;5154364;27;19923;-71
2021/08/25 04:20:31;;;;;;;;;;;;;;;;;;5154206;27;19927;-71
2021/08/25 04:22:57;;;;;;;;;;;;;;;;;;5154447;27;19927;-71
2021/08/25 04:25:23;;;;;;;;;;;;;;;;;;5154263;27;19923;-71
2021/08/25 04:27:50;;;;;;;;;;;;;;;;;;5154370;27;19923;-71
2021/08/25 04:30:16;;;;;;;;;;;;;;;;;;5154204;27;20505;-71
2021/08/25 04:32:42;;;;;;;;;;;;;;;;;;5153817;27;19923;-72
2021/08/25 04:35:09;;;;;;;;;;;;;;;;;;5154554;27;19923;-72
2021/08/25 04:37:35;;;;;;;;;;;;;;;;;;5154158;27;19930;-71
2021/08/25 04:40:01;;;;;;;;;;;;;;;;;;5154548;27;19927;-72
2021/08/25 04:42:27;;;;;;;;;;;;;;;;;;5154126;27;20373;-71
2021/08/25 04:44:54;;;;;;;;;;;;;;;;;;5153792;27;19923;-71
2021/08/25 04:47:20;;;;;;;;;;;;;;;;;;5154383;27;19923;-71
2021/08/25 04:49:46;;;;;;;;;;;;;;;;;;5153743;27;19930;-71
2021/08/25 04:52:14;;;;;;;;;;;;;;;;;;5154201;27;19923;-70
2021/08/25 04:54:40;;;;;;;;;;;;;;;;;;5153709;27;20451;-70
2021/08/25 04:57:06;;;;;;;;;;;;;;;;;;5153993;27;19923;-71
2021/08/25 04:59:32;;;;;;;;;;;;;;;;;;5154088;27;19923;-72
2021/08/25 05:01:59;;;;;;;;;;;;;;;;;;5153698;27;20372;-72
2021/08/25 05:04:25;;;;;;;;;;;;;;;;;;5154216;27;19996;-72
2021/08/25 05:06:51;;;;;;;;;;;;;;;;;;5153875;27;19950;-72
2021/08/25 05:09:18;;;;;;;;;;;;;;;;;;5153922;27;19930;-75
2021/08/25 05:11:44;;;;;;;;;;;;;;;;;;5153521;27;19923;-73
2021/08/25 05:14:10;;;;;;;;;;;;;;;;;;5154021;27;19950;-73
2021/08/25 05:16:36;;;;;;;;;;;;;;;;;;5153577;27;19931;-74
2021/08/25 05:19:03;;;;;;;;;;;;;;;;;;5153977;27;20365;-74
2021/08/25 05:21:29;;;;;;;;;;;;;;;;;;5153593;27;19930;-74
2021/08/25 05:23:55;;;;;;;;;;;;;;;;;;5153618;27;19949;-74
2021/08/25 05:26:22;;;;;;;;;;;;;;;;;;5153728;27;19934;-74
2021/08/25 05:28:48;;;;;;;;;;;;;;;;;;5157802;27;19934;-73
2021/08/25 05:31:14;;;;;;;;;;;;;;;;;;5157796;27;19939;-72
2021/08/25 05:33:41;;;;;;;;;;;;;;;;;;5157298;27;20373;-69
2021/08/25 05:36:07;;;;;;;;;;;;;;;;;;5157533;27;19923;-69
2021/08/25 05:38:33;;;;;;;;;;;;;;;;;;5157843;27;19923;-68
2021/08/25 05:40:59;;;;;;;;;;;;;;;;;;5157060;27;20372;-68
2021/08/25 05:43:26;;;;;;;;;;;;;;;;;;5157631;27;19930;-71
2021/08/25 05:45:52;;;;;;;;;;;;;;;;;;5157044;27;20396;-71
2021/08/25 05:48:18;;;;;;;;;;;;;;;;;;5157276;27;19923;-71
2021/08/25 05:50:45;;;;;;;;;;;;;;;;;;5157227;27;19923;-70
2021/08/25 05:53:11;;;;;;;;;;;;;;;;;;5157174;27;19924;-71
2021/08/25 05:55:37;;;;;;;;;;;;;;;;;;5156824;27;19923;-71
2021/08/25 05:58:04;;;;;;;;;;;;;;;;;;5157433;27;19922;-70
2021/08/25 06:00:30;;;;;;;;;;;;;;;;;;5157037;27;20372;-69
2021/08/25 06:02:56;;;;;;;;;;;;;;;;;;5156793;27;19933;-69
2021/08/25 06:05:23;;;;;;;;;;;;;;;;;;5157152;27;19927;-69
2021/08/25 06:07:49;;;;;;;;;;;;;;;;;;5156926;27;20300;-69
2021/08/25 06:10:15;;;;;;;;;;;;;;;;;;5156861;27;19923;-69
2021/08/25 06:12:41;;;;;;;;;;;;;;;;;;5156848;27;19929;-68
2021/08/25 06:15:08;;;;;;;;;;;;;;;;;;5157015;27;19923;-69
2021/08/25 06:17:34;;;;;;;;;;;;;;;;;;5156781;27;19930;-68
2021/08/25 06:20:00;;;;;;;;;;;;;;;;;;5156259;27;20296;-68
2021/08/25 06:22:27;;;;;;;;;;;;;;;;;;5156619;27;19923;-69
2021/08/25 06:24:53;;;;;;;;;;;;;;;;;;5156669;27;19927;-69
2021/08/25 06:27:19;;;;;;;;;;;;;;;;;;5156575;27;20377;-69
2021/08/25 06:29:46;;;;;;;;;;;;;;;;;;5156024;27;19923;-69
2021/08/25 06:32:12;;;;;;;;;;;;;;;;;;5156697;27;19923;-69
2021/08/25 06:34:38;;;;;;;;;;;;;;;;;;5156119;27;20420;-69
2021/08/25 06:37:04;;;;;;;;;;;;;;;;;;5156390;27;20013;-69
2021/08/25 06:39:31;;;;;;;;;;;;;;;;;;5155854;27;19923;-69
2021/08/25 06:41:57;;;;;;;;;;;;;;;;;;5156346;27;19946;-69
2021/08/25 06:44:23;;;;;;;;;;;;;;;;;;5156201;27;19927;-69
2021/08/25 06:46:50;;;;;;;;;;;;;;;;;;5156176;27;19923;-68
2021/08/25 06:49:16;;;;;;;;;;;;;;;;;;5156066;27;20287;-68
2021/08/25 06:51:43;;;;;;;;;;;;;;;;;;5155675;27;19976;-68
2021/08/25 06:54:09;;;;;;;;;;;;;;;;;;5156363;27;19965;-69
2021/08/25 06:56:35;;;;;;;;;;;;;;;;;;5155950;27;20484;-68
2021/08/25 06:59:02;;;;;;;;;;;;;;;;;;5155851;27;19930;-69
2021/08/25 07:01:28;;;;;;;;;;;;;;;;;;5156104;27;19923;-69
2021/08/25 07:03:54;;;;;;;;;;;;;;;;;;5155620;27;19930;-69
2021/08/25 07:06:20;;;;;;;;;;;;;;;;;;5156077;27;19923;-68
2021/08/25 07:08:47;;;;;;;;;;;;;;;;;;5155758;27;19923;-68
2021/08/25 07:11:13;;;;;;;;;;;;;;;;;;5155695;27;19940;-69
2021/08/25 07:13:39;;;;;;;;;;;;;;;;;;5155566;27;19930;-69
2021/08/25 07:16:07;;;;;;;;;;;;;;;;;;5155914;27;20266;-69
2021/08/25 07:18:33;;;;;;;;;;;;;;;;;;5155493;27;20392;-69
2021/08/25 07:20:59;;;;;;;;;;;;;;;;;;5154983;27;19923;-69
2021/08/25 07:23:26;;;;;;;;;;;;;;;;;;5155783;27;19923;-69
2021/08/25 07:25:52;;;;;;;;;;;;;;;;;;5155038;27;19923;-69
2021/08/25 07:28:18;;;;;;;;;;;;;;;;;;5155593;27;19923;-69
2021/08/25 07:30:45;;;;;;;;;;;;;;;;;;5155040;27;20300;-71
2021/08/25 07:33:14;;;;;;;;;;;;;;;;;;5155118;27;19923;-70
2021/08/25 07:35:40;;;;;;;;;;;;;;;;;;5154891;27;20018;-71
2021/08/25 07:38:07;;;;;;;;;;;;;;;;;;5155167;27;20322;-71
2021/08/25 07:40:33;;;;;;;;;;;;;;;;;;5155026;27;19934;-70
2021/08/25 07:42:59;;;;;;;;;;;;;;;;;;5155119;27;19929;-71
2021/08/25 07:45:26;;;;;;;;;;;;;;;;;;5154910;27;20292;-70
2021/08/25 07:47:52;;;;;;;;;;;;;;;;;;5154676;27;19923;-70
2021/08/25 07:50:18;;;;;;;;;;;;;;;;;;5154089;27;19923;-70
2021/08/25 07:52:44;;;;;;;;;;;;;;;;;;5154495;27;19923;-70
2021/08/25 07:55:11;;;;;;;;;;;;;;;;;;5155162;27;19930;-70
2021/08/25 07:57:37;;;;;;;;;;;;;;;;;;5154436;27;20421;-70
2021/08/25 08:00:03;;;;;;;;;;;;;;;;;;5154753;27;19933;-70
2021/08/25 08:02:30;;;;;;;;;;;;;;;;;;5154949;27;19930;-69
2021/08/25 08:04:56;;;;;;;;;;;;;;;;;;5154311;27;19927;-70
2021/08/25 08:07:22;;;;;;;;;;;;;;;;;;5154813;27;19930;-70
2021/08/25 08:09:48;;;;;;;;;;;;;;;;;;5154639;27;19923;-70
2021/08/25 08:12:15;;;;;;;;;;;;;;;;;;5154436;27;19923;-71
2021/08/25 08:14:41;;;;;;;;;;;;;;;;;;5154778;27;19930;-70
2021/08/25 08:17:07;;;;;;;;;;;;;;;;;;5154790;27;19929;-69
2021/08/25 08:19:34;;;;;;;;;;;;;;;;;;5154433;27;20377;-70
2021/08/25 08:22:00;;;;;;;;;;;;;;;;;;5153981;27;19930;-69
2021/08/25 08:24:27;;;;;;;;;;;;;;;;;;5154683;27;19946;-69
2021/08/25 08:26:53;;;;;;;;;;;;;;;;;;5153966;27;20124;-70
2021/08/25 08:29:19;;;;;;;;;;;;;;;;;;5154578;27;19930;-70
2021/08/25 08:31:46;;;;;;;;;;;;;;;;;;5153968;27;20399;-71
2021/08/25 08:34:12;;;;;;;;;;;;;;;;;;5154174;27;19923;-70
2021/08/25 08:36:38;;;;;;;;;;;;;;;;;;5154219;27;19929;-70
2021/08/25 08:39:05;;;;;;;;;;;;;;;;;;5154192;27;20403;-70
2021/08/25 08:41:31;;;;;;;;;;;;;;;;;;5154150;27;19930;-71
2021/08/25 08:43:57;;;;;;;;;;;;;;;;;;5154085;27;19923;-70
2021/08/25 08:46:24;;;;;;;;;;;;;;;;;;5153924;27;19927;-70
2021/08/25 08:48:51;;;;;;;;;;;;;;;;;;5153687;27;19929;-70
2021/08/25 08:51:17;;;;;;;;;;;;;;;;;;5154338;27;19923;-71
2021/08/25 08:53:44;;;;;;;;;;;;;;;;;;5153931;27;19927;-70
2021/08/25 08:56:10;;;;;;;;;;;;;;;;;;5154311;27;19931;-69
2021/08/25 08:58:36;;;;;;;;;;;;;;;;;;5153551;27;20396;-70
2021/08/25 09:01:02;;;;;;;;;;;;;;;;;;5153918;27;19923;-71
2021/08/25 09:03:29;;;;;;;;;;;;;;;;;;5158057;27;19923;-71
2021/08/25 09:05:55;;;;;;;;;;;;;;;;;;5157881;27;20300;-71
2021/08/25 09:08:22;;;;;;;;;;;;;;;;;;5158191;27;19923;-71
2021/08/25 09:10:48;;;;;;;;;;;;;;;;;;5157795;27;19923;-70
2021/08/25 09:13:14;;;;;;;;;;;;;;;;;;5158201;27;19927;-71
2021/08/25 09:15:40;;;;;;;;;;;;;;;;;;5157656;27;20388;-71
2021/08/25 09:18:07;;;;;;;;;;;;;;;;;;5157910;27;19923;-70
2021/08/25 09:20:33;;;;;;;;;;;;;;;;;;5157729;27;19931;-71
2021/08/25 09:22:59;;;;;;;;;;;;;;;;;;5157501;27;19923;-71
2021/08/25 09:25:26;;;;;;;;;;;;;;;;;;5158089;27;19923;-71
2021/08/25 09:27:52;;;;;;;;;;;;;;;;;;5157798;27;19923;-71
2021/08/25 09:30:18;;;;;;;;;;;;;;;;;;5157703;27;19930;-71
2021/08/25 09:32:45;;;;;;;;;;;;;;;;;;5157376;27;19934;-71
2021/08/25 09:35:11;;;;;;;;;;;;;;;;;;5157824;27;19945;-71
2021/08/25 09:37:37;;;;;;;;;;;;;;;;;;5157225;27;19923;-72
2021/08/25 09:40:06;;;;;;;;;;;;;;;;;;5157777;27;19923;-71
2021/08/25 09:42:32;;;;;;;;;;;;;;;;;;5157671;27;19976;-71
2021/08/25 09:44:58;;;;;;;;;;;;;;;;;;5157159;27;20300;-71
2021/08/25 09:47:25;;;;;;;;;;;;;;;;;;5157205;27;19927;-70
2021/08/25 09:49:51;;;;;;;;;;;;;;;;;;5157261;27;19923;-71
2021/08/25 09:52:17;;;;;;;;;;;;;;;;;;5157152;27;19924;-71
2021/08/25 09:54:44;;;;;;;;;;;;;;;;;;5157192;27;19931;-71
2021/08/25 09:57:10;;;;;;;;;;;;;;;;;;5156944;27;20285;-71
2021/08/25 09:59:36;;;;;;;;;;;;;;;;;;5156924;27;19929;-71
2021/08/25 10:02:03;;;;;;;;;;;;;;;;;;5157398;27;19924;-71
2021/08/25 10:04:29;;;;;;;;;;;;;;;;;;5157017;27;20392;-71
2021/08/25 10:06:55;;;;;;;;;;;;;;;;;;5156477;27;19934;-72
2021/08/25 10:09:21;;;;;;;;;;;;;;;;;;5157205;27;19930;-71
2021/08/25 10:11:48;;;;;;;;;;;;;;;;;;5156567;27;20296;-72
2021/08/25 10:14:16;;;;;;;;;;;;;;;;;;5155631;27;20029;-72
2021/08/25 10:16:43;;;;;;;;;;;;;;;;;;5156824;27;19923;-71
2021/08/25 10:19:09;;;;;;;;;;;;;;;;;;5157032;27;19923;-72
2021/08/25 10:21:36;;;;;;;;;;;;;;;;;;5156413;27;19941;-71
2021/08/25 10:24:04;;;;;;;;;;;;;;;;;;5156616;27;19930;-73
2021/08/25 10:26:30;;;;;;;;;;;;;;;;;;5156535;27;20087;-72
2021/08/25 10:28:56;;;;;;;;;;;;;;;;;;5156630;27;19927;-72
2021/08/25 10:31:23;;;;;;;;;;;;;;;;;;5156812;27;19923;-72
2021/08/25 10:33:49;;;;;;;;;;;;;;;;;;5156048;27;19923;-72
2021/08/25 10:36:15;;;;;;;;;;;;;;;;;;5156718;27;19931;-72
2021/08/25 10:38:42;;;;;;;;;;;;;;;;;;5156124;27;20377;-72
2021/08/25 10:41:09;;;;;;;;;;;;;;;;;;5156223;27;20319;-72
2021/08/25 10:43:35;;;;;;;;;;;;;;;;;;5156238;27;19935;-72
2021/08/25 10:46:01;;;;;;;;;;;;;;;;;;5156521;27;19923;-72
2021/08/25 10:48:28;;;;;;;;;;;;;;;;;;5156212;27;20387;-72
2021/08/25 10:50:54;;;;;;;;;;;;;;;;;;5155891;27;19930;-73
2021/08/25 10:53:20;;;;;;;;;;;;;;;;;;5156194;27;19930;-73
2021/08/25 10:55:46;;;;;;;;;;;;;;;;;;5155700;27;19930;-71
2021/08/25 10:58:13;;;;;;;;;;;;;;;;;;5155897;27;20003;-71
2021/08/25 11:00:39;;;;;;;;;;;;;;;;;;5155886;27;19934;-71
2021/08/25 11:03:05;;;;;;;;;;;;;;;;;;5155669;27;19934;-71
2021/08/25 11:05:32;;;;;;;;;;;;;;;;;;5156028;27;19923;-71
2021/08/25 11:07:58;;;;;;;;;;;;;;;;;;5155768;27;20274;-71
2021/08/25 11:10:24;;;;;;;;;;;;;;;;;;5155710;27;19923;-71
2021/08/25 11:12:51;;;;;;;;;;;;;;;;;;5155686;27;19923;-71
2021/08/25 11:15:17;;;;;;;;;;;;;;;;;;5155514;27;20389;-71
2021/08/25 11:17:43;;;;;;;;;;;;;;;;;;5155216;27;19929;-71
2021/08/25 11:20:10;;;;;;;;;;;;;;;;;;5155328;27;20535;-71
2021/08/25 11:22:36;;;;;;;;;;;;;;;;;;5155438;27;19938;-70
2021/08/25 11:25:02;;;;;;;;;;;;;;;;;;5155452;27;19949;-71
2021/08/25 11:27:29;;;;;;;;;;;;;;;;;;5155333;27;19923;-70
2021/08/25 11:29:55;;;;;;;;;;;;;;;;;;5155362;27;19923;-71
2021/08/25 11:32:21;;;;;;;;;;;;;;;;;;5155123;27;20369;-70
2021/08/25 11:34:48;;;;;;;;;;;;;;;;;;5155236;27;19929;-70
2021/08/25 11:37:16;;;;;;;;;;;;;;;;;;5154455;27;21370;-70
2021/08/25 11:39:42;;;;;;;;;;;;;;;;;;5154914;27;19923;-70
2021/08/25 11:42:09;;;;;;;;;;;;;;;;;;5155398;27;19923;-70
2021/08/25 11:44:35;;;;;;;;;;;;;;;;;;5154908;27;20442;-70
2021/08/25 11:47:01;;;;;;;;;;;;;;;;;;5155222;27;19923;-70
2021/08/25 11:49:28;;;;;;;;;;;;;;;;;;5155337;27;20277;-71
2021/08/25 11:51:54;;;;;;;;;;;;;;;;;;5154709;27;19923;-71
2021/08/25 11:54:20;;;;;;;;;;;;;;;;;;5154820;27;19923;-71
2021/08/25 11:56:46;;;;;;;;;;;;;;;;;;5154403;27;20405;-71
2021/08/25 11:59:13;;;;;;;;;;;;;;;;;;5154435;27;19923;-70
2021/08/25 12:01:39;;;;;;;;;;;;;;;;;;5154824;27;19950;-71
2021/08/25 12:04:06;;;;;;;;;;;;;;;;;;5154756;27;19934;-71
2021/08/25 12:06:32;;;;;;;;;;;;;;;;;;5154869;27;19930;-70
2021/08/25 12:08:58;;;;;;;;;;;;;;;;;;5154364;27;20401;-71
2021/08/25 12:11:25;;;;;;;;;;;;;;;;;;5154803;27;19930;-70
2021/08/25 12:13:51;;;;;;;;;;;;;;;;;;5154596;27;20036;-72
2021/08/25 12:16:17;;;;;;;;;;;;;;;;;;5154399;27;19942;-71
2021/08/25 12:18:44;;;;;;;;;;;;;;;;;;5154504;27;19923;-71
2021/08/25 12:21:10;;;;;;;;;;;;;;;;;;5154291;27;20376;-70
2021/08/25 12:23:36;;;;;;;;;;;;;;;;;;5154540;27;19927;-70
2021/08/25 12:26:02;;;;;;;;;;;;;;;;;;5154739;27;19923;-71
2021/08/25 12:28:29;;;;;;;;;;;;;;;;;;5154242;27;20365;-70
2021/08/25 12:30:55;;;;;;;;;;;;;;;;;;5154033;27;19929;-71
2021/08/25 12:33:21;;;;;;;;;;;;;;;;;;5154754;27;19923;-71
2021/08/25 12:35:48;;;;;;;;;;;;;;;;;;5154148;27;19923;-71
2021/08/25 12:38:14;;;;;;;;;;;;;;;;;;5153816;27;19924;-70
2021/08/25 12:40:40;;;;;;;;;;;;;;;;;;5154587;27;19956;-71
2021/08/25 12:43:07;;;;;;;;;;;;;;;;;;5154524;27;19927;-71
2021/08/25 12:45:34;;;;;;;;;;;;;;;;;;5153958;27;19923;-71
2021/08/25 12:48:00;;;;;;;;;;;;;;;;;;5153680;27;20360;-71
2021/08/25 12:50:26;;;;;;;;;;;;;;;;;;5154326;27;19927;-70
2021/08/25 12:52:53;;;;;;;;;;;;;;;;;;5153700;27;19930;-71
2021/08/25 12:55:20;;;;;;;;;;;;;;;;;;5154136;27;19931;-71
2021/08/25 12:57:47;;;;;;;;;;;;;;;;;;5153687;27;20282;-69
2021/08/25 13:00:13;;;;;;;;;;;;;;;;;;5153892;27;19923;-70
2021/08/25 13:02:41;;;;;;;;;;;;;;;;;;5154038;27;19927;-70
2021/08/25 13:05:07;;;;;;;;;;;;;;;;;;5154168;27;19923;-70
2021/08/25 13:07:33;;;;;;;;;;;;;;;;;;5153870;27;20262;-69
2021/08/25 13:10:00;;;;;;;;;;;;;;;;;;5153873;27;19923;-70
2021/08/25 13:12:26;;;;;;;;;;;;;;;;;;5154176;27;19923;-69
2021/08/25 13:14:52;;;;;;;;;;;;;;;;;;5153368;27;20365;-70
2021/08/25 13:17:18;;;;;;;;;;;;;;;;;;5154107;27;19930;-71
2021/08/25 13:19:45;;;;;;;;;;;;;;;;;;5153757;27;19946;-70
2021/08/25 13:22:11;;;;;;;;;;;;;;;;;;5153562;27;19925;-70
2021/08/25 13:24:37;;;;;;;;;;;;;;;;;;5153671;27;19946;-70
2021/08/25 13:27:04;;;;;;;;;;;;;;;;;;5153696;27;19930;-70
2021/08/25 13:29:30;;;;;;;;;;;;;;;;;;5153483;27;19923;-70
2021/08/25 13:31:56;;;;;;;;;;;;;;;;;;5153646;27;19931;-70
2021/08/25 13:34:23;;;;;;;;;;;;;;;;;;5153863;27;19923;-70
2021/08/25 13:36:49;;;;;;;;;;;;;;;;;;5153536;27;19945;-70
2021/08/25 13:39:15;;;;;;;;;;;;;;;;;;5153585;27;19930;-70
2021/08/25 13:41:42;;;;;;;;;;;;;;;;;;5153700;27;19924;-70
2021/08/25 13:44:08;;;;;;;;;;;;;;;;;;5153558;27;20377;-70
2021/08/25 13:46:34;;;;;;;;;;;;;;;;;;5153520;27;19930;-70
2021/08/25 13:49:01;;;;;;;;;;;;;;;;;;5156240;27;19922;-70
2021/08/25 13:51:27;;;;;;;;;;;;;;;;;;5157195;27;20062;-69
2021/08/25 13:53:54;;;;;;;;;;;;;;;;;;5157213;27;19930;-69
2021/08/25 13:56:20;;;;;;;;;;;;;;;;;;5157088;27;19923;-69
2021/08/25 13:58:46;;;;;;;;;;;;;;;;;;5157172;27;20246;-69
2021/08/25 14:01:12;;;;;;;;;;;;;;;;;;5156859;27;20381;-70
2021/08/25 14:03:39;;;;;;;;;;;;;;;;;;5156627;27;19923;-69
2021/08/25 14:06:05;;;;;;;;;;;;;;;;;;5157118;27;19946;-69
2021/08/25 14:08:31;;;;;;;;;;;;;;;;;;5156879;27;19930;-70
2021/08/25 14:10:58;;;;;;;;;;;;;;;;;;5156982;27;19923;-70
2021/08/25 14:13:24;;;;;;;;;;;;;;;;;;5156786;27;19923;-70
2021/08/25 14:15:50;;;;;;;;;;;;;;;;;;5156890;27;19930;-70
2021/08/25 14:18:17;;;;;;;;;;;;;;;;;;5156980;27;19931;-70
2021/08/25 14:20:43;;;;;;;;;;;;;;;;;;5156301;27;20377;-69
2021/08/25 14:23:09;;;;;;;;;;;;;;;;;;5156690;27;19945;-71
2021/08/25 14:25:35;;;;;;;;;;;;;;;;;;5156949;27;19923;-69
2021/08/25 14:28:02;;;;;;;;;;;;;;;;;;5156561;27;20296;-71
2021/08/25 14:30:28;;;;;;;;;;;;;;;;;;5156500;27;19923;-70
2021/08/25 14:32:54;;;;;;;;;;;;;;;;;;5156637;27;19929;-73
2021/08/25 14:35:21;;;;;;;;;;;;;;;;;;5156409;27;20289;-69
2021/08/25 14:37:47;;;;;;;;;;;;;;;;;;5156047;27;19934;-69
2021/08/25 14:40:13;;;;;;;;;;;;;;;;;;5156721;27;19929;-69
2021/08/25 14:42:39;;;;;;;;;;;;;;;;;;5156078;27;19926;-68
2021/08/25 14:45:06;;;;;;;;;;;;;;;;;;5156239;27;19937;-68
2021/08/25 14:47:32;;;;;;;;;;;;;;;;;;5156538;27;19929;-69
2021/08/25 14:49:58;;;;;;;;;;;;;;;;;;5155975;27;20510;-70
2021/08/25 14:52:25;;;;;;;;;;;;;;;;;;5156043;27;19930;-70
2021/08/25 14:54:51;;;;;;;;;;;;;;;;;;5155977;27;19930;-69
2021/08/25 14:57:17;;;;;;;;;;;;;;;;;;5155953;27;19927;-69
2021/08/25 14:59:44;;;;;;;;;;;;;;;;;;5155566;27;19923;-69
2021/08/25 15:02:10;;;;;;;;;;;;;;;;;;5155955;27;20292;-69
2021/08/25 15:04:36;;;;;;;;;;;;;;;;;;5155751;27;19923;-69
2021/08/25 15:07:02;;;;;;;;;;;;;;;;;;5156004;27;19923;-69
2021/08/25 15:09:29;;;;;;;;;;;;;;;;;;5155828;27;19930;-70
2021/08/25 15:11:55;;;;;;;;;;;;;;;;;;5155811;27;19923;-69
2021/08/25 15:14:21;;;;;;;;;;;;;;;;;;5155988;27;19990;-69
2021/08/25 15:16:48;;;;;;;;;;;;;;;;;;5155456;27;19927;-69
2021/08/25 15:19:14;;;;;;;;;;;;;;;;;;5155643;27;19930;-70
2021/08/25 15:21:40;;;;;;;;;;;;;;;;;;5155070;27;19926;-69
2021/08/25 15:24:06;;;;;;;;;;;;;;;;;;5155853;27;19923;-69
2021/08/25 15:26:33;;;;;;;;;;;;;;;;;;5155363;27;20396;-69
2021/08/25 15:28:59;;;;;;;;;;;;;;;;;;5155480;27;19923;-69
2021/08/25 15:31:25;;;;;;;;;;;;;;;;;;5155528;27;20006;-69
2021/08/25 15:33:52;;;;;;;;;;;;;;;;;;5154830;27;20289;-69
2021/08/25 15:36:19;;;;;;;;;;;;;;;;;;5155156;27;19927;-70
2021/08/25 15:38:46;;;;;;;;;;;;;;;;;;5154947;27;19983;-69
2021/08/25 15:41:12;;;;;;;;;;;;;;;;;;5155340;27;19924;-69
2021/08/25 15:43:38;;;;;;;;;;;;;;;;;;5155094;27;19960;-69
2021/08/25 15:46:06;;;;;;;;;;;;;;;;;;5155038;27;19929;-69
2021/08/25 15:48:32;;;;;;;;;;;;;;;;;;5154854;27;19923;-70
2021/08/25 15:50:59;;;;;;;;;;;;;;;;;;5155070;27;19923;-69
2021/08/25 15:53:25;;;;;;;;;;;;;;;;;;5154905;27;20384;-69
2021/08/25 15:55:51;;;;;;;;;;;;;;;;;;5154855;27;19923;-69
2021/08/25 15:58:18;;;;;;;;;;;;;;;;;;5155175;27;19927;-69
2021/08/25 16:00:44;;;;;;;;;;;;;;;;;;5154418;27;19930;-69
2021/08/25 16:03:10;;;;;;;;;;;;;;;;;;5154965;27;19923;-69
2021/08/25 16:05:37;;;;;;;;;;;;;;;;;;5154519;27;20536;-69
2021/08/25 16:08:03;;;;;;;;;;;;;;;;;;5154687;27;19931;-69
2021/08/25 16:10:32;;;;;;;;;;;;;;;;;;5154956;27;19929;-70
2021/08/25 16:12:59;;;;;;;;;;;;;;;;;;5153918;27;19993;-70
2021/08/25 16:15:25;;;;;;;;;;;;;;;;;;5154395;27;20381;-70
2021/08/25 16:17:51;;;;;;;;;;;;;;;;;;5154160;27;19923;-70
2021/08/25 16:20:17;;;;;;;;;;;;;;;;;;5154521;27;19927;-70
2021/08/25 16:22:44;;;;;;;;;;;;;;;;;;5154268;27;20291;-70
2021/08/25 16:25:10;;;;;;;;;;;;;;;;;;5154418;27;19950;-70
2021/08/25 16:27:36;;;;;;;;;;;;;;;;;;5154340;27;19930;-70
2021/08/25 16:30:03;;;;;;;;;;;;;;;;;;5154376;27;19923;-70
2021/08/25 16:32:29;;;;;;;;;;;;;;;;;;5153606;27;19924;-70
2021/08/25 16:34:55;;;;;;;;;;;;;;;;;;5153783;27;19923;-73
2021/08/25 16:37:21;;;;;;;;;;;;;;;;;;5154130;27;19923;-70
2021/08/25 16:39:48;;;;;;;;;;;;;;;;;;5154159;27;19927;-70